ADDS METAR Data INFO
IDs: Format: Raw Decoded Include TAF

Data at: 0750 UTC 24 May 2018

KCZT 240735Z AUTO 12006KT 10SM BKN050 25/21 A3002 RMK AO2
KCZT 240715Z AUTO 13007KT 10SM CLR 25/21 A3001 RMK AO2
KCZT 240655Z AUTO 12007KT 10SM CLR 25/21 A3001 RMK AO2
KCZT 240635Z AUTO 12008KT 10SM CLR 25/21 A3000 RMK AO2
KCZT 240615Z AUTO 13008G16KT 10SM CLR 26/21 A3000 RMK AO2
KCZT 240555Z AUTO 13006KT 10SM CLR 26/20 A3000 RMK AO2
KCZT 240535Z AUTO 13010G16KT 10SM CLR 26/20 A2999 RMK AO2
KCZT 240515Z AUTO 13009G14KT 10SM CLR 27/20 A2999 RMK AO2
KCZT 240455Z AUTO 13009G16KT 10SM CLR 27/20 A2998 RMK AO2
KCZT 240435Z AUTO 13006G16KT 10SM CLR 28/20 A2997 RMK AO2
KCZT 240415Z AUTO 13008KT 10SM CLR 28/20 A2996 RMK AO2
KCZT 240355Z AUTO 14009G15KT 10SM CLR 28/20 A2996 RMK AO2
KCZT 240335Z AUTO 13010G15KT 10SM CLR 28/20 A2995 RMK AO2
KCZT 240315Z AUTO 13008KT 10SM CLR 29/20 A2994 RMK AO2
KCZT 240255Z AUTO 13007KT 10SM CLR 30/19 A2993 RMK AO2
KCZT 240235Z AUTO 13008G14KT 10SM SCT090 30/19 A2992 RMK AO2
KCZT 240215Z AUTO 13007KT 10SM BKN090 30/18 A2992 RMK AO2
KCZT 240155Z AUTO 13007KT 10SM BKN090 31/17 A2991 RMK AO2
KCZT 240135Z AUTO 13005KT 10SM SCT090 31/16 A2990 RMK AO2
KCZT 240115Z AUTO 13005KT 10SM CLR 31/15 A2989 RMK AO2
KCZT 240055Z AUTO 13004KT 10SM SCT080 32/15 A2988 RMK AO2
KCZT 240035Z AUTO 12008KT 10SM SCT080 32/15 A2988 RMK AO2
KCZT 240015Z AUTO 12009KT 10SM SCT090 32/16 A2987 RMK AO2
KCZT 232355Z AUTO 10008G15KT 10SM SCT090 33/16 A2987 RMK AO2
KCZT 232335Z AUTO 12009G15KT 10SM SCT085 34/16 A2987 RMK AO2
KCZT 232315Z AUTO 11010G16KT 10SM SCT075 BKN085 33/17 A2987 RMK AO2
KCZT 232255Z AUTO 11010G15KT 10SM BKN075 OVC085 33/16 A2988 RMK AO2
KCZT 232235Z AUTO 14006KT 10SM OVC080 34/17 A2988 RMK AO2
KCZT 232215Z AUTO 15008KT 10SM OVC080 33/17 A2988 RMK AO2
KCZT 232155Z AUTO 09010G14KT 10SM OVC080 34/17 A2989 RMK AO2
KCZT 232135Z AUTO 08005KT 10SM OVC070 34/17 A2989 RMK AO2
KCZT 232115Z AUTO 12006G14KT 10SM BKN070 33/17 A2990 RMK AO2
KCZT 232055Z AUTO 10007KT 10SM BKN070 33/17 A2991 RMK AO2
KCZT 232035Z AUTO 14004G14KT 10SM BKN070 33/17 A2991 RMK AO2
KCZT 232015Z AUTO 13009G14KT 10SM SCT070 33/18 A2992 RMK AO2
KCZT 231955Z AUTO 09008KT 10SM SCT060 33/18 A2992 RMK AO2
KCZT 231935Z AUTO 08006G16KT 10SM SCT060 32/17 A2993 RMK AO2
KCZT 231915Z AUTO 13006KT 10SM CLR 32/18 A2994 RMK AO2
KCZT 231855Z AUTO 11010KT 10SM CLR 32/17 A2995 RMK AO2 LTG DSNT E
KCZT 231835Z AUTO 14008G14KT 10SM CLR 31/18 A2996 RMK AO2
KCZT 231815Z AUTO 15007G15KT 10SM CLR 31/18 A2996 RMK AO2
KCZT 231755Z AUTO 13007KT 090V170 10SM CLR 31/18 A2997 RMK AO2
KCZT 231735Z AUTO 13007KT 10SM CLR 30/18 A2997 RMK AO2
KCZT 231715Z AUTO 13009KT 10SM CLR 30/19 A2999 RMK AO2
KCZT 231655Z AUTO 15006KT 10SM SCT040 29/19 A2999 RMK AO2
KCZT 231635Z AUTO 13009KT 10SM SCT038 28/19 A3000 RMK AO2
KCZT 231615Z AUTO 12010G16KT 10SM CLR 28/20 A3000 RMK AO2
KCZT 231555Z AUTO 15008G14KT 10SM SCT031 27/20 A3001 RMK AO2
KCZT 231535Z AUTO 15009G16KT 10SM SCT029 27/20 A3001 RMK AO2
KCZT 231515Z AUTO 15009KT 10SM SCT019 SCT032 26/20 A3001 RMK AO2
KCZT 231455Z AUTO 14008KT 10SM BKN019 BKN026 BKN032 26/21 A3002 RMK AO2
KCZT 231435Z AUTO 13007KT 10SM BKN017 BKN022 OVC030 25/21 A3002 RMK AO2
KCZT 231415Z AUTO 13005KT 10SM BKN013 BKN017 OVC023 24/22 A3001 RMK AO2
KCZT 231355Z AUTO 13005KT 10SM SCT011 BKN020 OVC027 23/22 A3000 RMK AO2
KCZT 231335Z AUTO 11006KT 10SM SCT007 SCT016 OVC025 23/22 A3000 RMK AO2
KCZT 231315Z AUTO 13004KT 10SM OVC025 22/22 A3000 RMK AO2
KCZT 231255Z AUTO 12004KT 10SM OVC023 22/22 A2999 RMK AO2
KCZT 231235Z AUTO 12003KT 7SM BKN021 21/21 A2998 RMK AO2
KCZT 231215Z AUTO 12003KT 7SM CLR 21/21 A2997 RMK AO2
KCZT 231155Z AUTO 13003KT 7SM CLR 21/21 A2996 RMK AO2
KCZT 231135Z AUTO 12003KT 10SM CLR 21/21 A2995 RMK AO2
KCZT 231115Z AUTO 12003KT 10SM CLR 21/21 A2995 RMK AO2
KCZT 231055Z AUTO 11004KT 10SM SCT012 SCT017 22/22 A2995 RMK AO2
KCZT 231035Z AUTO 13005KT 10SM BKN015 22/22 A2994 RMK AO2
KCZT 231015Z AUTO 13004KT 10SM OVC015 22/22 A2994 RMK AO2
KCZT 230955Z AUTO 13005KT 10SM BKN015 22/22 A2993 RMK AO2
KCZT 230935Z AUTO 13007KT 10SM BKN013 22/22 A2993 RMK AO2
KCZT 230915Z AUTO 13006KT 10SM BKN013 22/22 A2992 RMK AO2
KCZT 230855Z AUTO 13007KT 10SM SCT015 22/22 A2992 RMK AO2
KCZT 230835Z AUTO 13005KT 10SM CLR 22/22 A2992 RMK AO2
KCZT 230815Z AUTO 12005KT 10SM CLR 22/21 A2992 RMK AO2
KCZT 230755Z AUTO 13006KT 10SM CLR 22/21 A2992 RMK AO2
KCZT 230735Z AUTO 12005KT 10SM CLR 22/21 A2993 RMK AO2
KCZT 230715Z AUTO 12005KT 10SM CLR 23/21 A2993 RMK AO2
KCZT 230655Z AUTO 13005KT 10SM CLR 23/21 A2993 RMK AO2
KCZT 230635Z AUTO 13005KT 10SM CLR 23/21 A2993 RMK AO2
KCZT 230615Z AUTO 11004KT 10SM CLR 23/21 A2994 RMK AO2
KCZT 230555Z AUTO 12005KT 10SM CLR 23/21 A2994 RMK AO2
KCZT 230535Z AUTO 12005KT 10SM CLR 23/21 A2994 RMK AO2
KCZT 230515Z AUTO 12005KT 10SM CLR 23/21 A2994 RMK AO2
KCZT 230455Z AUTO 12004KT 10SM CLR 23/21 A2994 RMK AO2
KCZT 230435Z AUTO 11005KT 10SM CLR 23/21 A2993 RMK AO2
KCZT 230415Z AUTO 06004KT 10SM CLR 23/22 A2992 RMK AO2
KCZT 230355Z AUTO 12005KT 10SM CLR 23/21 A2990 RMK AO2
KCZT 230335Z AUTO 12005KT 10SM CLR 23/22 A2989 RMK AO2
KCZT 230315Z AUTO 14007KT 10SM SCT120 23/22 A2987 RMK AO2
KCZT 230255Z AUTO 10005KT 10SM SCT012 SCT017 BKN120 23/21 A2988 RMK AO2 P0097
KCZT 230235Z AUTO 12012G32KT 1 1/2SM +TSRA SCT009 BKN016 OVC023 23/19 A2988 RMK AO2 VIS 1V3 LTG DSNT NE THRU S P0096
KCZT 230215Z AUTO 21010G21KT 2SM +TSRA SCT028 BKN033 OVC044 23/22 A2990 RMK AO2 LTG DSNT ALQS P0035
KCZT 230155Z AUTO 26008KT 5SM +TSRA SCT046 BKN060 OVC070 24/21 A2987 RMK AO2 LTG DSNT ALQS P0006
KCZT 230135Z AUTO 03004KT 10SM BKN070 24/20 A2985 RMK AO2 LTG DSNT N
KCZT 230115Z AUTO 03008G17KT 10SM TSRA SCT060 OVC070 25/20 A2985 RMK AO2 LTG DSNT NW THRU E
KCZT 230055Z AUTO 09007KT 10SM TS OVC075 31/17 A2983 RMK AO2 LTG DSNT ALQS
KCZT 230035Z AUTO 22003KT 10SM TS OVC075 31/17 A2984 RMK AO2 LTG DSNT ALQS
KCZT 230015Z AUTO 16006KT 10SM VCTS OVC075 32/17 A2983 RMK AO2 LTG DSNT W AND NW
KCZT 222355Z AUTO 15005KT 10SM VCTS BKN075 OVC085 32/16 A2982 RMK AO2 LTG DSNT W AND NW
KCZT 222335Z AUTO 17005KT 10SM VCTS SCT075 32/18 A2982 RMK AO2 LTG DSNT W AND NW
KCZT 222315Z AUTO 21010G15KT 10SM BKN075 32/18 A2982 RMK AO2 LTG DSNT W AND NW
KCZT 222255Z AUTO 16010KT 10SM BKN075 BKN090 34/16 A2982 RMK AO2 LTG DSNT W
KCZT 222235Z AUTO 15013G19KT 10SM SCT075 BKN090 BKN110 34/16 A2982 RMK AO2 LTG DSNT W
KCZT 222215Z AUTO 13012G17KT 10SM BKN075 BKN100 34/16 A2983 RMK AO2
KCZT 222155Z AUTO 15011G19KT 10SM SCT065 SCT090 34/16 A2983 RMK AO2 LTG DSNT W
KCZT 222135Z AUTO 12009G16KT 10SM BKN065 BKN090 34/17 A2984 RMK AO2
KCZT 222115Z AUTO 16005G08KT 10SM SCT065 SCT080 SCT100 35/17 A2985 RMK AO2
KCZT 222055Z AUTO 14008G15KT 10SM SCT065 SCT085 34/17 A2986 RMK AO2
KCZT 222035Z AUTO 13009G15KT 10SM SCT065 BKN085 34/17 A2986 RMK AO2
KCZT 222015Z AUTO 15009KT 10SM SCT065 BKN085 33/17 A2987 RMK AO2
KCZT 221955Z AUTO 14009G15KT 10SM SCT055 SCT075 BKN085 32/17 A2988 RMK AO2